sensor_id;sensor_type;location;lat;lon;timestamp;P1;durP1;ratioP1;P2;durP2;ratioP2
28455;SDS011;15682;56.742;38.866;2022-11-20T00:00:28;9.1;;;4.6;;
28455;SDS011;15682;56.742;38.866;2022-11-20T00:02:28;8.7;;;4.7;;
28455;SDS011;15682;56.742;38.866;2022-11-20T00:04:28;9.5;;;4.5;;
28455;SDS011;15682;56.742;38.866;2022-11-20T00:06:28;8.5;;;4.6;;
28455;SDS011;15682;56.742;38.866;2022-11-20T00:08:27;8.5;;;4.2;;
28455;SDS011;15682;56.742;38.866;2022-11-20T00:10:27;8.3;;;3.8;;
28455;SDS011;15682;56.742;38.866;2022-11-20T00:12:27;9.5;;;4.4;;
28455;SDS011;15682;56.742;38.866;2022-11-20T00:14:26;9.0;;;4.3;;
28455;SDS011;15682;56.742;38.866;2022-11-20T00:16:27;10.8;;;4.6;;
28455;SDS011;15682;56.742;38.866;2022-11-20T00:18:26;10.8;;;4.2;;
28455;SDS011;15682;56.742;38.866;2022-11-20T00:20:26;8.9;;;4.1;;
28455;SDS011;15682;56.742;38.866;2022-11-20T00:22:26;11.0;;;4.3;;
28455;SDS011;15682;56.742;38.866;2022-11-20T00:24:25;8.8;;;3.9;;
28455;SDS011;15682;56.742;38.866;2022-11-20T00:26:25;8.9;;;4.2;;
28455;SDS011;15682;56.742;38.866;2022-11-20T00:28:25;9.7;;;4.0;;
28455;SDS011;15682;56.742;38.866;2022-11-20T00:30:25;8.5;;;4.2;;
28455;SDS011;15682;56.742;38.866;2022-11-20T00:32:25;8.3;;;4.1;;
28455;SDS011;15682;56.742;38.866;2022-11-20T00:34:24;8.9;;;4.3;;
28455;SDS011;15682;56.742;38.866;2022-11-20T00:36:25;10.1;;;4.4;;
28455;SDS011;15682;56.742;38.866;2022-11-20T00:38:24;9.9;;;4.2;;
28455;SDS011;15682;56.742;38.866;2022-11-20T00:40:24;9.5;;;4.0;;
28455;SDS011;15682;56.742;38.866;2022-11-20T00:42:23;8.4;;;4.5;;
28455;SDS011;15682;56.742;38.866;2022-11-20T00:44:23;9.2;;;3.8;;
28455;SDS011;15682;56.742;38.866;2022-11-20T00:46:24;10.0;;;4.5;;
28455;SDS011;15682;56.742;38.866;2022-11-20T00:48:23;8.9;;;4.1;;
28455;SDS011;15682;56.742;38.866;2022-11-20T00:50:23;10.8;;;4.7;;
28455;SDS011;15682;56.742;38.866;2022-11-20T00:52:22;9.6;;;4.5;;
28455;SDS011;15682;56.742;38.866;2022-11-20T00:54:22;7.0;;;3.9;;
28455;SDS011;15682;56.742;38.866;2022-11-20T00:56:22;10.7;;;4.4;;
28455;SDS011;15682;56.742;38.866;2022-11-20T00:58:22;8.6;;;4.0;;
28455;SDS011;15682;56.742;38.866;2022-11-20T01:00:21;9.9;;;4.0;;
28455;SDS011;15682;56.742;38.866;2022-11-20T01:02:21;9.4;;;4.4;;
28455;SDS011;15682;56.742;38.866;2022-11-20T01:04:21;10.1;;;4.1;;
28455;SDS011;15682;56.742;38.866;2022-11-20T01:06:22;9.7;;;4.3;;
28455;SDS011;15682;56.742;38.866;2022-11-20T01:08:21;11.0;;;4.9;;
28455;SDS011;15682;56.742;38.866;2022-11-20T01:10:20;12.5;;;5.3;;
28455;SDS011;15682;56.742;38.866;2022-11-20T01:12:20;12.7;;;4.9;;
28455;SDS011;15682;56.742;38.866;2022-11-20T01:14:20;10.9;;;4.7;;
28455;SDS011;15682;56.742;38.866;2022-11-20T01:16:20;10.3;;;4.2;;
28455;SDS011;15682;56.742;38.866;2022-11-20T01:18:19;9.0;;;4.7;;
28455;SDS011;15682;56.742;38.866;2022-11-20T01:20:19;11.2;;;4.6;;
28455;SDS011;15682;56.742;38.866;2022-11-20T01:22:19;9.6;;;4.6;;
28455;SDS011;15682;56.742;38.866;2022-11-20T01:24:20;8.4;;;4.0;;
28455;SDS011;15682;56.742;38.866;2022-11-20T01:26:19;9.8;;;4.0;;
28455;SDS011;15682;56.742;38.866;2022-11-20T01:28:18;9.0;;;4.1;;
28455;SDS011;15682;56.742;38.866;2022-11-20T01:30:18;9.6;;;4.2;;
28455;SDS011;15682;56.742;38.866;2022-11-20T01:32:18;7.5;;;4.0;;
28455;SDS011;15682;56.742;38.866;2022-11-20T01:34:18;9.5;;;3.5;;
28455;SDS011;15682;56.742;38.866;2022-11-20T01:36:18;8.4;;;3.8;;
28455;SDS011;15682;56.742;38.866;2022-11-20T01:38:17;9.8;;;4.0;;
28455;SDS011;15682;56.742;38.866;2022-11-20T01:40:17;7.8;;;3.9;;
28455;SDS011;15682;56.742;38.866;2022-11-20T01:42:17;10.3;;;4.5;;
28455;SDS011;15682;56.742;38.866;2022-11-20T01:44:18;9.4;;;4.3;;
28455;SDS011;15682;56.742;38.866;2022-11-20T01:46:16;9.1;;;4.4;;
28455;SDS011;15682;56.742;38.866;2022-11-20T01:48:16;7.9;;;3.9;;
28455;SDS011;15682;56.742;38.866;2022-11-20T01:50:17;8.6;;;4.0;;
28455;SDS011;15682;56.742;38.866;2022-11-20T01:52:17;10.4;;;4.1;;
28455;SDS011;15682;56.742;38.866;2022-11-20T01:54:16;8.0;;;3.9;;
28455;SDS011;15682;56.742;38.866;2022-11-20T01:56:15;8.6;;;3.7;;
28455;SDS011;15682;56.742;38.866;2022-11-20T01:58:15;8.0;;;3.8;;
28455;SDS011;15682;56.742;38.866;2022-11-20T02:00:16;8.6;;;4.0;;
28455;SDS011;15682;56.742;38.866;2022-11-20T02:02:15;8.1;;;3.9;;
28455;SDS011;15682;56.742;38.866;2022-11-20T02:04:14;9.0;;;3.6;;
28455;SDS011;15682;56.742;38.866;2022-11-20T02:06:16;8.6;;;4.0;;
28455;SDS011;15682;56.742;38.866;2022-11-20T02:08:14;8.4;;;4.0;;
28455;SDS011;15682;56.742;38.866;2022-11-20T02:10:14;6.5;;;3.6;;
28455;SDS011;15682;56.742;38.866;2022-11-20T02:12:14;5.9;;;3.3;;
28455;SDS011;15682;56.742;38.866;2022-11-20T02:14:13;9.2;;;4.2;;
28455;SDS011;15682;56.742;38.866;2022-11-20T02:16:16;8.2;;;3.9;;
28455;SDS011;15682;56.742;38.866;2022-11-20T02:18:13;8.9;;;3.9;;
28455;SDS011;15682;56.742;38.866;2022-11-20T02:20:13;10.0;;;4.6;;
28455;SDS011;15682;56.742;38.866;2022-11-20T02:22:13;7.9;;;4.0;;
28455;SDS011;15682;56.742;38.866;2022-11-20T02:24:13;9.2;;;4.3;;
28455;SDS011;15682;56.742;38.866;2022-11-20T02:26:12;8.1;;;3.9;;
28455;SDS011;15682;56.742;38.866;2022-11-20T02:28:12;9.3;;;4.1;;
28455;SDS011;15682;56.742;38.866;2022-11-20T02:30:12;8.3;;;4.1;;
28455;SDS011;15682;56.742;38.866;2022-11-20T02:32:17;9.8;;;4.4;;
28455;SDS011;15682;56.742;38.866;2022-11-20T02:34:11;8.0;;;4.1;;
28455;SDS011;15682;56.742;38.866;2022-11-20T02:36:11;10.4;;;4.4;;
28455;SDS011;15682;56.742;38.866;2022-11-20T02:38:11;9.7;;;4.2;;
28455;SDS011;15682;56.742;38.866;2022-11-20T02:40:11;8.4;;;3.7;;
28455;SDS011;15682;56.742;38.866;2022-11-20T02:42:10;9.1;;;4.3;;
28455;SDS011;15682;56.742;38.866;2022-11-20T02:44:10;9.7;;;4.1;;
28455;SDS011;15682;56.742;38.866;2022-11-20T02:46:10;12.5;;;4.7;;
28455;SDS011;15682;56.742;38.866;2022-11-20T02:48:10;10.5;;;3.8;;
28455;SDS011;15682;56.742;38.866;2022-11-20T02:50:09;8.5;;;4.0;;
28455;SDS011;15682;56.742;38.866;2022-11-20T02:52:09;8.9;;;4.2;;
28455;SDS011;15682;56.742;38.866;2022-11-20T02:54:09;8.4;;;4.0;;
28455;SDS011;15682;56.742;38.866;2022-11-20T02:56:09;9.4;;;3.8;;
28455;SDS011;15682;56.742;38.866;2022-11-20T02:58:08;8.8;;;3.8;;
28455;SDS011;15682;56.742;38.866;2022-11-20T03:00:09;9.5;;;4.2;;
28455;SDS011;15682;56.742;38.866;2022-11-20T03:02:08;11.5;;;4.7;;
28455;SDS011;15682;56.742;38.866;2022-11-20T03:04:08;8.8;;;4.2;;
28455;SDS011;15682;56.742;38.866;2022-11-20T03:06:08;8.9;;;4.1;;
28455;SDS011;15682;56.742;38.866;2022-11-20T03:08:07;9.7;;;4.3;;
28455;SDS011;15682;56.742;38.866;2022-11-20T03:10:07;11.2;;;4.4;;
28455;SDS011;15682;56.742;38.866;2022-11-20T03:12:07;9.4;;;4.1;;
28455;SDS011;15682;56.742;38.866;2022-11-20T03:14:07;10.4;;;4.1;;
28455;SDS011;15682;56.742;38.866;2022-11-20T03:16:08;9.0;;;4.2;;
28455;SDS011;15682;56.742;38.866;2022-11-20T03:18:06;9.0;;;4.0;;
28455;SDS011;15682;56.742;38.866;2022-11-20T03:20:07;9.6;;;4.2;;
28455;SDS011;15682;56.742;38.866;2022-11-20T03:22:06;7.7;;;3.2;;
28455;SDS011;15682;56.742;38.866;2022-11-20T03:24:06;8.9;;;3.9;;
28455;SDS011;15682;56.742;38.866;2022-11-20T03:26:07;10.7;;;4.4;;
28455;SDS011;15682;56.742;38.866;2022-11-20T03:28:05;8.6;;;4.2;;
28455;SDS011;15682;56.742;38.866;2022-11-20T03:30:05;8.3;;;4.2;;
28455;SDS011;15682;56.742;38.866;2022-11-20T03:32:05;10.8;;;4.6;;
28455;SDS011;15682;56.742;38.866;2022-11-20T03:34:04;14.9;;;5.2;;
28455;SDS011;15682;56.742;38.866;2022-11-20T03:36:05;10.0;;;4.1;;
28455;SDS011;15682;56.742;38.866;2022-11-20T03:38:04;10.6;;;4.9;;
28455;SDS011;15682;56.742;38.866;2022-11-20T03:40:04;9.2;;;4.1;;
28455;SDS011;15682;56.742;38.866;2022-11-20T03:42:03;10.6;;;4.2;;
28455;SDS011;15682;56.742;38.866;2022-11-20T03:44:04;11.6;;;4.5;;
28455;SDS011;15682;56.742;38.866;2022-11-20T03:46:03;9.3;;;3.9;;
28455;SDS011;15682;56.742;38.866;2022-11-20T03:48:03;9.1;;;4.6;;
28455;SDS011;15682;56.742;38.866;2022-11-20T03:50:03;8.7;;;4.3;;
28455;SDS011;15682;56.742;38.866;2022-11-20T03:52:02;11.0;;;4.7;;
28455;SDS011;15682;56.742;38.866;2022-11-20T03:54:03;9.6;;;4.4;;
28455;SDS011;15682;56.742;38.866;2022-11-20T03:56:02;9.4;;;4.4;;
28455;SDS011;15682;56.742;38.866;2022-11-20T03:58:01;12.8;;;4.7;;
28455;SDS011;15682;56.742;38.866;2022-11-20T04:00:02;11.4;;;4.5;;
28455;SDS011;15682;56.742;38.866;2022-11-20T04:02:01;8.2;;;4.3;;
28455;SDS011;15682;56.742;38.866;2022-11-20T04:04:01;10.7;;;4.5;;
28455;SDS011;15682;56.742;38.866;2022-11-20T04:06:01;11.5;;;4.9;;
28455;SDS011;15682;56.742;38.866;2022-11-20T04:08:00;9.0;;;4.0;;
28455;SDS011;15682;56.742;38.866;2022-11-20T04:10:00;9.1;;;4.7;;
28455;SDS011;15682;56.742;38.866;2022-11-20T04:12:00;10.0;;;4.6;;
28455;SDS011;15682;56.742;38.866;2022-11-20T04:14:00;9.9;;;4.2;;
28455;SDS011;15682;56.742;38.866;2022-11-20T04:15:59;10.6;;;4.6;;
28455;SDS011;15682;56.742;38.866;2022-11-20T04:17:59;10.4;;;4.3;;
28455;SDS011;15682;56.742;38.866;2022-11-20T04:19:59;11.0;;;4.7;;
28455;SDS011;15682;56.742;38.866;2022-11-20T04:21:59;8.6;;;4.4;;
28455;SDS011;15682;56.742;38.866;2022-11-20T04:23:59;11.1;;;4.7;;
28455;SDS011;15682;56.742;38.866;2022-11-20T04:26:00;8.8;;;4.3;;
28455;SDS011;15682;56.742;38.866;2022-11-20T04:27:58;11.3;;;4.3;;
28455;SDS011;15682;56.742;38.866;2022-11-20T04:29:58;10.7;;;4.5;;
28455;SDS011;15682;56.742;38.866;2022-11-20T04:31:58;10.8;;;4.6;;
28455;SDS011;15682;56.742;38.866;2022-11-20T04:33:59;10.3;;;4.5;;
28455;SDS011;15682;56.742;38.866;2022-11-20T04:35:59;9.8;;;4.7;;
28455;SDS011;15682;56.742;38.866;2022-11-20T04:37:57;9.5;;;4.8;;
28455;SDS011;15682;56.742;38.866;2022-11-20T04:39:57;13.0;;;5.0;;
28455;SDS011;15682;56.742;38.866;2022-11-20T04:41:57;10.1;;;5.0;;
28455;SDS011;15682;56.742;38.866;2022-11-20T04:43:57;12.5;;;5.1;;
28455;SDS011;15682;56.742;38.866;2022-11-20T04:45:57;8.6;;;4.6;;
28455;SDS011;15682;56.742;38.866;2022-11-20T04:47:56;9.4;;;4.7;;
28455;SDS011;15682;56.742;38.866;2022-11-20T04:49:56;10.6;;;4.9;;
28455;SDS011;15682;56.742;38.866;2022-11-20T04:51:55;11.9;;;5.0;;
28455;SDS011;15682;56.742;38.866;2022-11-20T04:53:55;9.0;;;4.4;;
28455;SDS011;15682;56.742;38.866;2022-11-20T04:55:59;10.9;;;5.4;;
28455;SDS011;15682;56.742;38.866;2022-11-20T04:57:55;9.3;;;4.9;;
28455;SDS011;15682;56.742;38.866;2022-11-20T04:59:55;8.1;;;4.4;;
28455;SDS011;15682;56.742;38.866;2022-11-20T05:01:54;10.4;;;4.7;;
28455;SDS011;15682;56.742;38.866;2022-11-20T05:03:54;10.3;;;5.0;;
28455;SDS011;15682;56.742;38.866;2022-11-20T05:05:54;9.0;;;4.8;;
28455;SDS011;15682;56.742;38.866;2022-11-20T05:07:55;11.4;;;4.9;;
28455;SDS011;15682;56.742;38.866;2022-11-20T05:09:54;9.9;;;4.9;;
28455;SDS011;15682;56.742;38.866;2022-11-20T05:11:53;11.6;;;4.4;;
28455;SDS011;15682;56.742;38.866;2022-11-20T05:13:53;10.0;;;4.6;;
28455;SDS011;15682;56.742;38.866;2022-11-20T05:15:53;9.2;;;4.3;;
28455;SDS011;15682;56.742;38.866;2022-11-20T05:17:53;9.5;;;4.3;;
28455;SDS011;15682;56.742;38.866;2022-11-20T05:19:52;11.0;;;4.4;;
28455;SDS011;15682;56.742;38.866;2022-11-20T05:21:52;9.5;;;4.3;;
28455;SDS011;15682;56.742;38.866;2022-11-20T05:23:52;12.0;;;4.8;;
28455;SDS011;15682;56.742;38.866;2022-11-20T05:25:52;10.2;;;4.5;;
28455;SDS011;15682;56.742;38.866;2022-11-20T05:27:52;12.3;;;4.7;;
28455;SDS011;15682;56.742;38.866;2022-11-20T05:29:51;11.2;;;5.6;;
28455;SDS011;15682;56.742;38.866;2022-11-20T05:31:51;12.0;;;5.5;;
28455;SDS011;15682;56.742;38.866;2022-11-20T05:33:51;12.4;;;4.8;;
28455;SDS011;15682;56.742;38.866;2022-11-20T05:35:51;11.0;;;5.2;;
28455;SDS011;15682;56.742;38.866;2022-11-20T05:37:50;11.6;;;4.5;;
28455;SDS011;15682;56.742;38.866;2022-11-20T05:39:50;10.7;;;5.1;;
28455;SDS011;15682;56.742;38.866;2022-11-20T05:41:50;12.8;;;5.2;;
28455;SDS011;15682;56.742;38.866;2022-11-20T05:43:50;10.0;;;4.7;;
28455;SDS011;15682;56.742;38.866;2022-11-20T05:45:53;11.1;;;5.3;;
28455;SDS011;15682;56.742;38.866;2022-11-20T05:47:49;12.3;;;4.9;;
28455;SDS011;15682;56.742;38.866;2022-11-20T05:49:49;11.2;;;4.9;;
28455;SDS011;15682;56.742;38.866;2022-11-20T05:51:49;10.8;;;5.0;;
28455;SDS011;15682;56.742;38.866;2022-11-20T05:53:49;11.2;;;4.7;;
28455;SDS011;15682;56.742;38.866;2022-11-20T05:55:55;11.2;;;4.6;;
28455;SDS011;15682;56.742;38.866;2022-11-20T05:57:48;10.3;;;5.0;;
28455;SDS011;15682;56.742;38.866;2022-11-20T05:59:48;11.3;;;4.9;;
28455;SDS011;15682;56.742;38.866;2022-11-20T06:01:48;11.9;;;4.9;;
28455;SDS011;15682;56.742;38.866;2022-11-20T06:03:48;11.6;;;5.4;;
28455;SDS011;15682;56.742;38.866;2022-11-20T06:05:47;11.3;;;5.2;;
28455;SDS011;15682;56.742;38.866;2022-11-20T06:07:47;15.4;;;5.7;;
28455;SDS011;15682;56.742;38.866;2022-11-20T06:09:47;10.5;;;4.9;;
28455;SDS011;15682;56.742;38.866;2022-11-20T06:11:47;13.5;;;5.4;;
28455;SDS011;15682;56.742;38.866;2022-11-20T06:13:46;10.6;;;4.5;;
28455;SDS011;15682;56.742;38.866;2022-11-20T06:15:48;13.0;;;5.6;;
28455;SDS011;15682;56.742;38.866;2022-11-20T06:17:46;12.8;;;5.7;;
28455;SDS011;15682;56.742;38.866;2022-11-20T06:19:46;11.8;;;5.4;;
28455;SDS011;15682;56.742;38.866;2022-11-20T06:21:47;12.2;;;5.6;;
28455;SDS011;15682;56.742;38.866;2022-11-20T06:23:45;14.1;;;6.0;;
28455;SDS011;15682;56.742;38.866;2022-11-20T06:25:45;13.4;;;5.7;;
28455;SDS011;15682;56.742;38.866;2022-11-20T06:27:45;10.9;;;4.9;;
28455;SDS011;15682;56.742;38.866;2022-11-20T06:29:45;12.5;;;5.6;;
28455;SDS011;15682;56.742;38.866;2022-11-20T06:31:44;12.0;;;5.8;;
28455;SDS011;15682;56.742;38.866;2022-11-20T06:33:44;12.1;;;5.4;;
28455;SDS011;15682;56.742;38.866;2022-11-20T06:35:44;16.5;;;5.8;;
28455;SDS011;15682;56.742;38.866;2022-11-20T06:37:44;11.7;;;5.8;;
28455;SDS011;15682;56.742;38.866;2022-11-20T06:39:43;12.4;;;6.0;;
28455;SDS011;15682;56.742;38.866;2022-11-20T06:41:43;13.1;;;5.8;;
28455;SDS011;15682;56.742;38.866;2022-11-20T06:43:43;13.2;;;5.8;;
28455;SDS011;15682;56.742;38.866;2022-11-20T06:45:43;11.6;;;5.5;;
28455;SDS011;15682;56.742;38.866;2022-11-20T06:47:43;14.2;;;5.9;;
28455;SDS011;15682;56.742;38.866;2022-11-20T06:49:42;13.4;;;6.2;;
28455;SDS011;15682;56.742;38.866;2022-11-20T06:51:42;16.3;;;5.6;;
28455;SDS011;15682;56.742;38.866;2022-11-20T06:53:42;14.3;;;6.0;;
28455;SDS011;15682;56.742;38.866;2022-11-20T06:55:42;16.6;;;6.9;;
28455;SDS011;15682;56.742;38.866;2022-11-20T06:57:42;17.1;;;6.4;;
28455;SDS011;15682;56.742;38.866;2022-11-20T06:59:41;15.3;;;7.1;;
28455;SDS011;15682;56.742;38.866;2022-11-20T07:01:41;15.1;;;6.7;;
28455;SDS011;15682;56.742;38.866;2022-11-20T07:03:41;13.8;;;6.3;;
28455;SDS011;15682;56.742;38.866;2022-11-20T07:05:41;12.9;;;6.3;;
28455;SDS011;15682;56.742;38.866;2022-11-20T07:07:40;14.1;;;6.2;;
28455;SDS011;15682;56.742;38.866;2022-11-20T07:09:40;17.7;;;6.2;;
28455;SDS011;15682;56.742;38.866;2022-11-20T07:11:40;18.0;;;7.2;;
28455;SDS011;15682;56.742;38.866;2022-11-20T07:13:40;22.1;;;7.0;;
28455;SDS011;15682;56.742;38.866;2022-11-20T07:15:40;18.4;;;7.1;;
28455;SDS011;15682;56.742;38.866;2022-11-20T07:17:39;15.3;;;6.5;;
28455;SDS011;15682;56.742;38.866;2022-11-20T07:19:39;14.0;;;6.2;;
28455;SDS011;15682;56.742;38.866;2022-11-20T07:21:39;14.9;;;6.4;;
28455;SDS011;15682;56.742;38.866;2022-11-20T07:23:39;21.9;;;7.1;;
28455;SDS011;15682;56.742;38.866;2022-11-20T07:25:39;20.3;;;7.2;;
28455;SDS011;15682;56.742;38.866;2022-11-20T07:27:38;16.4;;;7.6;;
28455;SDS011;15682;56.742;38.866;2022-11-20T07:29:38;19.3;;;7.3;;
28455;SDS011;15682;56.742;38.866;2022-11-20T07:31:38;15.8;;;7.2;;
28455;SDS011;15682;56.742;38.866;2022-11-20T07:33:38;17.0;;;7.0;;
28455;SDS011;15682;56.742;38.866;2022-11-20T07:35:38;16.3;;;6.8;;
28455;SDS011;15682;56.742;38.866;2022-11-20T07:37:37;17.8;;;5.9;;
28455;SDS011;15682;56.742;38.866;2022-11-20T07:39:37;13.9;;;6.2;;
28455;SDS011;15682;56.742;38.866;2022-11-20T07:41:37;13.3;;;6.0;;
28455;SDS011;15682;56.742;38.866;2022-11-20T07:43:37;32.5;;;8.0;;
28455;SDS011;15682;56.742;38.866;2022-11-20T07:45:37;26.8;;;7.9;;
28455;SDS011;15682;56.742;38.866;2022-11-20T07:47:36;21.0;;;7.8;;
28455;SDS011;15682;56.742;38.866;2022-11-20T07:49:36;17.2;;;6.9;;
28455;SDS011;15682;56.742;38.866;2022-11-20T07:51:36;32.9;;;9.7;;
28455;SDS011;15682;56.742;38.866;2022-11-20T07:53:36;19.4;;;7.3;;
28455;SDS011;15682;56.742;38.866;2022-11-20T07:55:36;15.8;;;6.8;;
28455;SDS011;15682;56.742;38.866;2022-11-20T07:57:36;13.9;;;6.6;;
28455;SDS011;15682;56.742;38.866;2022-11-20T07:59:35;13.1;;;6.1;;
28455;SDS011;15682;56.742;38.866;2022-11-20T08:01:35;13.5;;;5.8;;
28455;SDS011;15682;56.742;38.866;2022-11-20T08:03:35;13.1;;;5.6;;
28455;SDS011;15682;56.742;38.866;2022-11-20T08:05:35;12.9;;;5.7;;
28455;SDS011;15682;56.742;38.866;2022-11-20T08:07:35;12.6;;;6.4;;
28455;SDS011;15682;56.742;38.866;2022-11-20T08:09:34;15.0;;;6.3;;
28455;SDS011;15682;56.742;38.866;2022-11-20T08:11:34;14.7;;;7.0;;
28455;SDS011;15682;56.742;38.866;2022-11-20T08:13:34;12.1;;;6.0;;
28455;SDS011;15682;56.742;38.866;2022-11-20T08:15:34;24.0;;;8.2;;
28455;SDS011;15682;56.742;38.866;2022-11-20T08:17:33;13.0;;;6.2;;
28455;SDS011;15682;56.742;38.866;2022-11-20T08:19:33;15.0;;;5.2;;
28455;SDS011;15682;56.742;38.866;2022-11-20T08:21:33;11.1;;;5.4;;
28455;SDS011;15682;56.742;38.866;2022-11-20T08:23:33;11.7;;;5.2;;
28455;SDS011;15682;56.742;38.866;2022-11-20T08:25:33;11.1;;;5.2;;
28455;SDS011;15682;56.742;38.866;2022-11-20T08:27:33;12.0;;;5.4;;
28455;SDS011;15682;56.742;38.866;2022-11-20T08:29:32;14.2;;;5.7;;
28455;SDS011;15682;56.742;38.866;2022-11-20T08:31:32;15.9;;;7.2;;
28455;SDS011;15682;56.742;38.866;2022-11-20T08:33:32;15.8;;;6.4;;
28455;SDS011;15682;56.742;38.866;2022-11-20T08:35:33;13.7;;;6.2;;
28455;SDS011;15682;56.742;38.866;2022-11-20T08:37:32;16.3;;;6.5;;
28455;SDS011;15682;56.742;38.866;2022-11-20T08:39:31;9.9;;;5.1;;
28455;SDS011;15682;56.742;38.866;2022-11-20T08:41:31;10.0;;;5.1;;
28455;SDS011;15682;56.742;38.866;2022-11-20T08:43:31;10.8;;;4.9;;
28455;SDS011;15682;56.742;38.866;2022-11-20T08:45:31;9.2;;;4.7;;
28455;SDS011;15682;56.742;38.866;2022-11-20T08:47:31;12.5;;;5.5;;
28455;SDS011;15682;56.742;38.866;2022-11-20T08:49:30;13.7;;;5.5;;
28455;SDS011;15682;56.742;38.866;2022-11-20T08:51:30;11.3;;;5.6;;
28455;SDS011;15682;56.742;38.866;2022-11-20T08:53:30;12.7;;;5.6;;
28455;SDS011;15682;56.742;38.866;2022-11-20T08:55:30;12.3;;;5.8;;
28455;SDS011;15682;56.742;38.866;2022-11-20T08:57:31;12.3;;;5.4;;
28455;SDS011;15682;56.742;38.866;2022-11-20T08:59:29;9.9;;;5.1;;
28455;SDS011;15682;56.742;38.866;2022-11-20T09:01:29;12.1;;;5.0;;
28455;SDS011;15682;56.742;38.866;2022-11-20T09:03:29;12.8;;;5.6;;
28455;SDS011;15682;56.742;38.866;2022-11-20T09:05:29;11.4;;;5.5;;
28455;SDS011;15682;56.742;38.866;2022-11-20T09:07:29;16.6;;;6.3;;
28455;SDS011;15682;56.742;38.866;2022-11-20T09:09:28;11.9;;;5.3;;
28455;SDS011;15682;56.742;38.866;2022-11-20T09:11:28;10.1;;;5.7;;
28455;SDS011;15682;56.742;38.866;2022-11-20T09:13:28;14.0;;;6.0;;
28455;SDS011;15682;56.742;38.866;2022-11-20T09:15:28;14.4;;;6.1;;
28455;SDS011;15682;56.742;38.866;2022-11-20T09:17:28;8.9;;;4.8;;
28455;SDS011;15682;56.742;38.866;2022-11-20T09:19:27;11.6;;;5.4;;
28455;SDS011;15682;56.742;38.866;2022-11-20T09:21:27;10.9;;;5.1;;
28455;SDS011;15682;56.742;38.866;2022-11-20T09:23:30;9.8;;;5.1;;
28455;SDS011;15682;56.742;38.866;2022-11-20T09:25:27;12.0;;;5.2;;
28455;SDS011;15682;56.742;38.866;2022-11-20T09:27:27;10.9;;;5.1;;
28455;SDS011;15682;56.742;38.866;2022-11-20T09:29:27;9.7;;;4.8;;
28455;SDS011;15682;56.742;38.866;2022-11-20T09:31:26;12.1;;;4.7;;
28455;SDS011;15682;56.742;38.866;2022-11-20T09:33:26;9.4;;;4.6;;
28455;SDS011;15682;56.742;38.866;2022-11-20T09:35:26;11.5;;;5.0;;
28455;SDS011;15682;56.742;38.866;2022-11-20T09:37:26;10.1;;;5.4;;
28455;SDS011;15682;56.742;38.866;2022-11-20T09:39:26;10.2;;;5.2;;
28455;SDS011;15682;56.742;38.866;2022-11-20T09:41:34;10.4;;;5.1;;
28455;SDS011;15682;56.742;38.866;2022-11-20T09:43:29;11.9;;;5.5;;
28455;SDS011;15682;56.742;38.866;2022-11-20T09:45:30;10.7;;;5.4;;
28455;SDS011;15682;56.742;38.866;2022-11-20T09:47:27;12.0;;;5.2;;
28455;SDS011;15682;56.742;38.866;2022-11-20T09:49:27;28.1;;;10.0;;
28455;SDS011;15682;56.742;38.866;2022-11-20T09:51:28;12.6;;;5.7;;
28455;SDS011;15682;56.742;38.866;2022-11-20T09:53:27;10.9;;;5.9;;
28455;SDS011;15682;56.742;38.866;2022-11-20T09:55:24;18.7;;;7.9;;
28455;SDS011;15682;56.742;38.866;2022-11-20T09:57:25;11.0;;;5.6;;
28455;SDS011;15682;56.742;38.866;2022-11-20T09:59:27;11.3;;;5.4;;
28455;SDS011;15682;56.742;38.866;2022-11-20T10:01:25;10.0;;;5.7;;
28455;SDS011;15682;56.742;38.866;2022-11-20T10:03:26;12.1;;;5.6;;
28455;SDS011;15682;56.742;38.866;2022-11-20T10:05:25;10.3;;;4.9;;
28455;SDS011;15682;56.742;38.866;2022-11-20T10:07:24;9.4;;;5.1;;
28455;SDS011;15682;56.742;38.866;2022-11-20T10:09:25;10.3;;;5.3;;
28455;SDS011;15682;56.742;38.866;2022-11-20T10:11:24;12.0;;;5.3;;
28455;SDS011;15682;56.742;38.866;2022-11-20T10:13:27;10.5;;;5.7;;
28455;SDS011;15682;56.742;38.866;2022-11-20T10:15:26;19.4;;;8.3;;
28455;SDS011;15682;56.742;38.866;2022-11-20T10:17:25;29.1;;;12.1;;
28455;SDS011;15682;56.742;38.866;2022-11-20T10:19:27;19.8;;;8.7;;
28455;SDS011;15682;56.742;38.866;2022-11-20T10:21:25;12.3;;;5.9;;
28455;SDS011;15682;56.742;38.866;2022-11-20T10:23:27;10.9;;;6.0;;
28455;SDS011;15682;56.742;38.866;2022-11-20T10:25:34;10.2;;;5.8;;
28455;SDS011;15682;56.742;38.866;2022-11-20T10:29:22;13.6;;;6.0;;
28455;SDS011;15682;56.742;38.866;2022-11-20T10:31:25;30.6;;;11.4;;
28455;SDS011;15682;56.742;38.866;2022-11-20T10:33:21;17.8;;;7.9;;
28455;SDS011;15682;56.742;38.866;2022-11-20T10:35:21;32.0;;;12.3;;
28455;SDS011;15682;56.742;38.866;2022-11-20T10:37:22;19.7;;;8.2;;
28455;SDS011;15682;56.742;38.866;2022-11-20T10:39:22;13.0;;;5.8;;
28455;SDS011;15682;56.742;38.866;2022-11-20T10:41:22;10.6;;;5.4;;
28455;SDS011;15682;56.742;38.866;2022-11-20T10:43:21;11.6;;;5.1;;
28455;SDS011;15682;56.742;38.866;2022-11-20T10:45:21;11.9;;;5.8;;
28455;SDS011;15682;56.742;38.866;2022-11-20T10:47:20;13.8;;;6.4;;
28455;SDS011;15682;56.742;38.866;2022-11-20T10:49:20;15.5;;;6.3;;
28455;SDS011;15682;56.742;38.866;2022-11-20T10:51:24;11.9;;;6.1;;
28455;SDS011;15682;56.742;38.866;2022-11-20T10:53:32;18.4;;;8.7;;
28455;SDS011;15682;56.742;38.866;2022-11-20T10:55:24;11.0;;;5.3;;
28455;SDS011;15682;56.742;38.866;2022-11-20T10:57:22;9.3;;;4.7;;
28455;SDS011;15682;56.742;38.866;2022-11-20T10:59:27;10.2;;;4.4;;
28455;SDS011;15682;56.742;38.866;2022-11-20T11:01:19;18.7;;;9.2;;
28455;SDS011;15682;56.742;38.866;2022-11-20T11:03:20;25.2;;;12.1;;
28455;SDS011;15682;56.742;38.866;2022-11-20T11:05:29;11.6;;;6.3;;
28455;SDS011;15682;56.742;38.866;2022-11-20T11:07:20;11.5;;;4.7;;
28455;SDS011;15682;56.742;38.866;2022-11-20T11:09:32;8.1;;;4.4;;
28455;SDS011;15682;56.742;38.866;2022-11-20T11:11:20;8.9;;;4.5;;
28455;SDS011;15682;56.742;38.866;2022-11-20T11:13:19;10.0;;;5.0;;
28455;SDS011;15682;56.742;38.866;2022-11-20T11:15:25;11.9;;;5.3;;
28455;SDS011;15682;56.742;38.866;2022-11-20T11:17:26;10.9;;;4.9;;
28455;SDS011;15682;56.742;38.866;2022-11-20T11:19:18;9.3;;;5.0;;
28455;SDS011;15682;56.742;38.866;2022-11-20T11:21:25;9.5;;;5.0;;
28455;SDS011;15682;56.742;38.866;2022-11-20T11:23:23;9.6;;;5.3;;
28455;SDS011;15682;56.742;38.866;2022-11-20T11:25:22;9.5;;;5.5;;
28455;SDS011;15682;56.742;38.866;2022-11-20T11:27:17;9.8;;;5.3;;
28455;SDS011;15682;56.742;38.866;2022-11-20T11:29:17;13.8;;;6.1;;
28455;SDS011;15682;56.742;38.866;2022-11-20T11:31:21;11.0;;;5.2;;
28455;SDS011;15682;56.742;38.866;2022-11-20T11:33:18;9.9;;;5.1;;
28455;SDS011;15682;56.742;38.866;2022-11-20T11:35:21;11.9;;;5.8;;
28455;SDS011;15682;56.742;38.866;2022-11-20T11:37:17;10.6;;;5.3;;
28455;SDS011;15682;56.742;38.866;2022-11-20T11:39:17;10.9;;;5.8;;
28455;SDS011;15682;56.742;38.866;2022-11-20T11:41:17;18.7;;;9.2;;
28455;SDS011;15682;56.742;38.866;2022-11-20T11:43:17;23.1;;;11.7;;
28455;SDS011;15682;56.742;38.866;2022-11-20T11:45:16;12.1;;;6.0;;
28455;SDS011;15682;56.742;38.866;2022-11-20T11:47:19;9.7;;;5.3;;
28455;SDS011;15682;56.742;38.866;2022-11-20T11:49:16;9.7;;;5.1;;
28455;SDS011;15682;56.742;38.866;2022-11-20T11:51:19;9.1;;;5.0;;
28455;SDS011;15682;56.742;38.866;2022-11-20T11:53:16;10.1;;;5.2;;
28455;SDS011;15682;56.742;38.866;2022-11-20T11:55:16;9.3;;;4.9;;
28455;SDS011;15682;56.742;38.866;2022-11-20T11:57:16;9.5;;;4.8;;
28455;SDS011;15682;56.742;38.866;2022-11-20T11:59:17;9.8;;;5.1;;
28455;SDS011;15682;56.742;38.866;2022-11-20T12:01:20;15.3;;;6.1;;
28455;SDS011;15682;56.742;38.866;2022-11-20T12:03:15;10.7;;;5.5;;
28455;SDS011;15682;56.742;38.866;2022-11-20T12:05:17;13.6;;;5.6;;
28455;SDS011;15682;56.742;38.866;2022-11-20T12:07:15;11.8;;;5.8;;